Infinite Prosperity — 3EUI6 — position and weather

sailwx.info

Track history (hours):
 
Tides and Currents Weather Stations Pressure Air Temp Water Temp Dewpoint Dewpoint Depression Visibility Wind Speed Wind Dir Waves Ship Positions

Infinite Prosperity

Last reported at 2018-Jan-11 23:45 UTC. Time now 2018-Jan-20 05:31 UTC.
Position N 36°51' E 023°33'.
Warning: this ship's position is 8 days out of date.

Length 225 m; draft 7 m.

Type: Cargo ship. MMSI: 370060000.

Date/timePositionNaut miles runAvg speedWind from/ knotsBaromVisibWave heightAir tempDewpointWater temp
2018-Jan-11 23:45N 36°51' E 023°33'412.2
2018-Jan-11 23:26N 36°54' E 023°35'512.4
2018-Jan-11 23:00N 36°59' E 023°39'612.3
2018-Jan-11 22:30N 37°04' E 023°43'612.4
2018-Jan-11 22:01N 37°09' E 023°47'612.4
2018-Jan-11 21:29N 37°14' E 023°51'612.4
2018-Jan-11 20:59N 37°20' E 023°55'712.4
2018-Jan-11 20:25N 37°26' E 024°00'512.5
2018-Jan-11 20:00N 37°30' E 024°04'612.6
2018-Jan-11 19:31N 37°35' E 024°08'612.6
2018-Jan-11 19:00N 37°40' E 024°13'612.7
2018-Jan-11 18:31N 37°44' E 024°19'712.8
2018-Jan-11 18:00N 37°49' E 024°25'612.6
2018-Jan-11 17:30N 37°53' E 024°31'612.4
2018-Jan-11 17:00N 37°58' E 024°36'142 6.8
2018-Jan-10 20:19N 40°01' E 026°05'411.0
2018-Jan-10 19:59N 40°02' E 026°10'427 8.3
2018-Jan-08 16:30N 46°16' E 030°51'4 9.0
2018-Jan-08 16:00N 46°16' E 030°45'0 0.7
2018-Jan-08 15:29N 46°17' E 030°45'0 0.0
2018-Jan-08 15:01N 46°17' E 030°45'0 0.0
2018-Jan-08 14:29N 46°17' E 030°45'0 0.1
2018-Jan-08 14:01N 46°17' E 030°44'0 0.1
2018-Jan-08 13:29N 46°17' E 030°44'0 0.1
2018-Jan-08 13:00N 46°16' E 030°44'0 0.1
2018-Jan-08 12:30N 46°16' E 030°44'0 0.0
2018-Jan-08 12:00N 46°16' E 030°44'0 0.0
2018-Jan-08 11:29N 46°16' E 030°44'0 0.0
2018-Jan-08 11:00N 46°16' E 030°44'0 0.0
2018-Jan-08 10:29N 46°16' E 030°44'0 0.0
2018-Jan-08 10:01N 46°16' E 030°44'0 0.0
2018-Jan-08 09:29N 46°16' E 030°44'0 0.0
2018-Jan-08 09:00N 46°16' E 030°44'0 0.0
2018-Jan-08 08:29N 46°16' E 030°44'0 0.0
2018-Jan-08 08:00N 46°16' E 030°44'0 0.0
2018-Jan-08 07:30N 46°16' E 030°44'0 0.0
2018-Jan-08 07:00N 46°16' E 030°44'0 0.0
2018-Jan-08 06:30N 46°16' E 030°44'0 0.0
2018-Jan-08 06:01N 46°16' E 030°44'0 0.0
2018-Jan-08 05:29N 46°16' E 030°44'0 0.0
2018-Jan-08 05:01N 46°16' E 030°44'0 0.0
2018-Jan-08 04:29N 46°16' E 030°44'0 0.1
2018-Jan-08 04:01N 46°16' E 030°44'0 0.0
2018-Jan-08 03:29N 46°16' E 030°44'0 0.0
2018-Jan-08 03:01N 46°16' E 030°44'0 0.0
2018-Jan-08 02:29N 46°16' E 030°44'0 0.0
2018-Jan-08 02:00N 46°16' E 030°44'0 0.2
2018-Jan-08 00:59N 46°16' E 030°45'0 0.1
2018-Jan-08 00:31N 46°17' E 030°45'0 0.1
2018-Jan-07 23:59N 46°17' E 030°45'0 0.0
2018-Jan-07 23:31N 46°17' E 030°45'0 0.0
2018-Jan-07 22:59N 46°17' E 030°45'0 0.1
2018-Jan-07 22:31N 46°17' E 030°45'0 0.0
2018-Jan-07 21:59N 46°17' E 030°45'0 0.1
2018-Jan-07 21:30N 46°17' E 030°45'0 0.1
2018-Jan-07 21:00N 46°17' E 030°45'0 0.0
2018-Jan-07 20:30N 46°17' E 030°45'0 0.0
2018-Jan-07 20:00N 46°17' E 030°45'0 0.0
2018-Jan-07 19:30N 46°17' E 030°45'0 0.0
2018-Jan-07 19:00N 46°17' E 030°45'0 0.0
2018-Jan-07 18:30N 46°17' E 030°45'0 0.0
2018-Jan-07 18:00N 46°17' E 030°45'0 0.0
2018-Jan-07 17:30N 46°17' E 030°45'0 0.0
2018-Jan-07 17:00N 46°17' E 030°45'0 0.0
2018-Jan-07 16:30N 46°17' E 030°45'0 0.0
2018-Jan-07 15:59N 46°17' E 030°45'0 0.0
2018-Jan-07 15:31N 46°17' E 030°45'0 0.0
2018-Jan-07 15:00N 46°17' E 030°45'0 0.0
2018-Jan-07 14:30N 46°17' E 030°45'0 0.0
2018-Jan-07 14:00N 46°17' E 030°45'0 0.0
2018-Jan-07 13:31N 46°17' E 030°45'0 0.0
2018-Jan-07 12:59N 46°17' E 030°45'0 0.0
2018-Jan-07 12:30N 46°17' E 030°44'0 0.2
2018-Jan-07 11:59N 46°17' E 030°45'1 1.5
2018-Jan-07 11:31N 46°17' E 030°44'3 5.7
2018-Jan-07 11:00N 46°19' E 030°41'1 1.0
2018-Jan-07 10:31N 46°19' E 030°40'0 0.0
2018-Jan-07 10:00N 46°19' E 030°40'0 0.0
2018-Jan-07 09:30N 46°19' E 030°40'0 0.0
2018-Jan-07 09:00N 46°19' E 030°40'0 0.0
2018-Jan-07 08:30N 46°19' E 030°40'0 0.0
2018-Jan-07 08:00N 46°19' E 030°40'0 0.0
2018-Jan-07 07:30N 46°19' E 030°40'0 0.0
2018-Jan-07 07:00N 46°19' E 030°40'0 0.0
2018-Jan-07 06:31N 46°19' E 030°40'0 0.0
2018-Jan-07 06:00N 46°19' E 030°40'0 0.0
2018-Jan-07 05:30N 46°19' E 030°40'0 0.0
2018-Jan-07 04:59N 46°19' E 030°40'0 0.0
2018-Jan-07 04:30N 46°19' E 030°40'0 0.0
2018-Jan-07 04:00N 46°19' E 030°40'0 0.0
2018-Jan-07 03:30N 46°19' E 030°40'0 0.0
2018-Jan-07 02:59N 46°19' E 030°40'0 0.0
2018-Jan-07 02:30N 46°19' E 030°40'0 0.0
2018-Jan-07 02:00N 46°19' E 030°40'0 0.0
2018-Jan-07 01:31N 46°19' E 030°40'0 0.0
2018-Jan-07 00:30N 46°19' E 030°40'0 0.0
2018-Jan-06 23:59N 46°19' E 030°40'0 0.0
2018-Jan-06 23:31N 46°19' E 030°40'0 0.0
2018-Jan-06 23:00N 46°19' E 030°40'0 0.0
2018-Jan-06 22:31N 46°19' E 030°40'0 0.0
2018-Jan-06 22:00N 46°19' E 030°40'0 0.0
2018-Jan-06 21:30N 46°19' E 030°40'0 0.0
2018-Jan-06 21:00N 46°19' E 030°40'0 0.0
2018-Jan-06 20:30N 46°19' E 030°40'0 0.0
2018-Jan-06 20:00N 46°19' E 030°40'0 0.0
2018-Jan-06 19:30N 46°19' E 030°40'0 0.0
2018-Jan-06 18:59N 46°19' E 030°40'0 0.0
2018-Jan-06 18:31N 46°19' E 030°40'0 0.0
2018-Jan-06 18:00N 46°19' E 030°40'0 0.0
2018-Jan-06 17:31N 46°19' E 030°40'0 0.0
2018-Jan-06 17:01N 46°19' E 030°40'0 0.0
2018-Jan-06 16:30N 46°19' E 030°40'0 0.0
2018-Jan-06 16:00N 46°19' E 030°40'0 0.0
2018-Jan-06 15:29N 46°19' E 030°40'0 0.0
2018-Jan-06 15:01N 46°19' E 030°40'0 0.0
2018-Jan-06 14:29N 46°19' E 030°40'0 0.0
2018-Jan-06 14:00N 46°19' E 030°40'0 0.0
2018-Jan-06 13:30N 46°19' E 030°40'0 0.0
2018-Jan-06 13:01N 46°19' E 030°40'0 0.0
2018-Jan-06 12:30N 46°19' E 030°40'0 0.0
2018-Jan-06 12:00N 46°19' E 030°40'0 0.0
2018-Jan-06 11:29N 46°19' E 030°40'0 0.0
2018-Jan-06 11:00N 46°19' E 030°40'0 0.0
2018-Jan-06 10:29N 46°19' E 030°40'0 0.0
2018-Jan-06 10:00N 46°19' E 030°40'0 0.0
2018-Jan-06 09:30N 46°19' E 030°40'0 0.0
2018-Jan-06 09:01N 46°19' E 030°40'0 0.0
2018-Jan-06 08:31N 46°19' E 030°40'0 0.0
2018-Jan-06 08:00N 46°19' E 030°40'0 0.0
2018-Jan-06 07:29N 46°19' E 030°40'0 0.0
2018-Jan-06 07:00N 46°19' E 030°40'0 0.0
2018-Jan-06 06:29N 46°19' E 030°40'0 0.0
2018-Jan-06 06:01N 46°19' E 030°40'0 0.0
2018-Jan-06 04:59N 46°19' E 030°40'0 0.0
2018-Jan-06 04:31N 46°19' E 030°40'0 0.0
2018-Jan-06 03:59N 46°19' E 030°40'0 0.0
2018-Jan-06 03:30N 46°19' E 030°40'0 0.0
2018-Jan-06 02:59N 46°19' E 030°40'0 0.0
2018-Jan-06 02:31N 46°19' E 030°40'0 0.0
2018-Jan-06 01:59N 46°19' E 030°40'0 0.0
2018-Jan-06 01:30N 46°19' E 030°40'0 0.0
2018-Jan-06 01:00N 46°19' E 030°40'0 0.0
2018-Jan-06 00:31N 46°19' E 030°40'0 0.0
2018-Jan-06 00:00N 46°19' E 030°40'0 0.0
2018-Jan-05 23:31N 46°19' E 030°40'0 0.0
2018-Jan-05 22:59N 46°19' E 030°40'0 0.0
2018-Jan-05 22:31N 46°19' E 030°40'0 0.0
2018-Jan-05 21:59N 46°19' E 030°40'0 0.0
2018-Jan-05 21:31N 46°19' E 030°40'0 0.0
2018-Jan-05 21:00N 46°19' E 030°40'0 0.0
2018-Jan-05 20:31N 46°19' E 030°40'0 0.0
2018-Jan-05 19:59N 46°19' E 030°40'0 0.0
2018-Jan-05 19:31N 46°19' E 030°40'0 0.0
2018-Jan-05 18:59N 46°19' E 030°40'0 0.0
2018-Jan-05 18:30N 46°19' E 030°40'0 0.0
2018-Jan-05 17:59N 46°19' E 030°40'0 0.0
2018-Jan-05 17:30N 46°19' E 030°40'0 0.0
2018-Jan-05 16:59N 46°19' E 030°40'0 0.0
2018-Jan-05 16:31N 46°19' E 030°40'0 0.0
2018-Jan-05 15:59N 46°19' E 030°40'0 0.0
2018-Jan-05 15:31N 46°19' E 030°40'0 0.0
2018-Jan-05 15:00N 46°19' E 030°40'0 0.0
2018-Jan-05 14:30N 46°19' E 030°40'0 0.0
2018-Jan-05 14:00N 46°19' E 030°40'0 0.0
2018-Jan-05 13:31N 46°19' E 030°40'0 0.0
2018-Jan-05 12:59N 46°19' E 030°40'0 0.0
2018-Jan-05 12:30N 46°19' E 030°40'0 0.0
2018-Jan-05 11:59N 46°19' E 030°40'0 0.0
2018-Jan-05 11:30N 46°19' E 030°40'0 0.0
2018-Jan-05 11:00N 46°19' E 030°40'0 0.0
2018-Jan-05 10:30N 46°19' E 030°40'0 0.0
2018-Jan-05 10:00N 46°19' E 030°40'0 0.0
2018-Jan-05 09:31N 46°19' E 030°40'0 0.0
2018-Jan-05 09:00N 46°19' E 030°40'0 0.0
2018-Jan-05 08:31N 46°19' E 030°40'0 0.0
2018-Jan-05 07:59N 46°19' E 030°40'0 0.0
2018-Jan-05 07:30N 46°19' E 030°40'0 0.0
2018-Jan-05 06:59N 46°19' E 030°40'0 0.0
2018-Jan-05 06:31N 46°19' E 030°40'0 0.0
2018-Jan-05 06:00N 46°19' E 030°40'0 0.0
2018-Jan-05 05:30N 46°19' E 030°40'0 0.0
2018-Jan-05 05:00N 46°19' E 030°40'0 0.0
2018-Jan-05 04:30N 46°19' E 030°40'0 0.0
2018-Jan-05 03:59N 46°19' E 030°40'0 0.0
2018-Jan-05 03:30N 46°19' E 030°40'0 0.0
2018-Jan-05 02:59N 46°19' E 030°40'0 0.0
2018-Jan-05 02:31N 46°19' E 030°40'0 0.0
2018-Jan-05 01:59N 46°19' E 030°40'0 0.0
2018-Jan-05 01:30N 46°19' E 030°40'0 0.0
2018-Jan-05 01:00N 46°19' E 030°40'0 0.0
2018-Jan-05 00:30N 46°19' E 030°40'0 0.0
2018-Jan-05 00:00N 46°19' E 030°40'0 0.0
2018-Jan-04 23:31N 46°19' E 030°40'0 0.0
2018-Jan-04 22:59N 46°19' E 030°40'0 0.0
2018-Jan-04 22:30N 46°19' E 030°40'0 0.0
2018-Jan-04 21:59N 46°19' E 030°40'0 0.0
2018-Jan-04 21:31N 46°19' E 030°40'0 0.0
2018-Jan-04 20:59N 46°19' E 030°40'0 0.0
2018-Jan-04 20:31N 46°19' E 030°40'0 0.0
2018-Jan-04 20:00N 46°19' E 030°40'0 0.0
2018-Jan-04 19:31N 46°19' E 030°40'0 0.0
2018-Jan-04 18:59N 46°19' E 030°40'0 0.0
2018-Jan-04 18:30N 46°19' E 030°40'0 0.0
2018-Jan-04 17:59N 46°19' E 030°40'0 0.0
2018-Jan-04 17:31N 46°19' E 030°40'0 0.0
2018-Jan-04 17:00N 46°19' E 030°40'0 0.0
2018-Jan-04 16:30N 46°19' E 030°40'0 0.0
2018-Jan-04 16:00N 46°19' E 030°40'0 0.0
2018-Jan-04 15:31N 46°19' E 030°40'0 0.0
2018-Jan-04 14:59N 46°19' E 030°40'0 0.0
2018-Jan-04 14:31N 46°19' E 030°40'0 0.0
2018-Jan-04 13:59N 46°19' E 030°40'0 0.0
2018-Jan-04 13:30N 46°19' E 030°40'0 0.0
2018-Jan-04 12:59N 46°19' E 030°40'0 0.0
2018-Jan-04 12:30N 46°19' E 030°40'0 0.0
2018-Jan-04 12:00N 46°19' E 030°40'0 0.0
2018-Jan-04 11:30N 46°19' E 030°40'0 0.0
2018-Jan-04 10:59N 46°19' E 030°40'0 0.0
2018-Jan-04 10:31N 46°19' E 030°40'0 0.0
2018-Jan-04 09:59N 46°19' E 030°40'0 0.0
2018-Jan-04 09:31N 46°19' E 030°40'0 0.0
2018-Jan-04 08:59N 46°19' E 030°40'0 0.0
2018-Jan-04 08:30N 46°19' E 030°40'0 0.0
2018-Jan-04 08:00N 46°19' E 030°40'0 0.0
2018-Jan-04 07:30N 46°19' E 030°40'0 0.0
2018-Jan-04 07:00N 46°19' E 030°40'0 0.0
2018-Jan-04 06:30N 46°19' E 030°40'0 0.0
2018-Jan-04 06:00N 46°19' E 030°40'0 0.0
2018-Jan-04 05:30N 46°19' E 030°40'0 0.0
2018-Jan-04 04:59N 46°19' E 030°40'0 0.0
2018-Jan-04 04:30N 46°19' E 030°40'0 0.0
2018-Jan-04 04:00N 46°19' E 030°40'0 0.0
2018-Jan-04 03:30N 46°19' E 030°40'0 0.0
2018-Jan-04 03:00N 46°19' E 030°40'0 0.0
2018-Jan-04 02:30N 46°19' E 030°40'0 0.0
2018-Jan-04 01:59N 46°19' E 030°40'0 0.0
2018-Jan-04 01:31N 46°19' E 030°40'0 0.0
2018-Jan-04 00:59N 46°19' E 030°40'0 0.0
2018-Jan-04 00:30N 46°19' E 030°40'0 0.0
2018-Jan-03 23:59N 46°19' E 030°40'0 0.0
2018-Jan-03 23:31N 46°19' E 030°40'0 0.0
2018-Jan-03 22:30N 46°19' E 030°40'0 0.0
2018-Jan-03 22:00N 46°19' E 030°40'0 0.0
2018-Jan-03 21:30N 46°19' E 030°40'0 0.0
2018-Jan-03 21:01N 46°19' E 030°40'0 0.0
2018-Jan-03 20:30N 46°19' E 030°40'0 0.0
2018-Jan-03 20:00N 46°19' E 030°40'0 0.0
2018-Jan-03 19:29N 46°19' E 030°40'0 0.0
2018-Jan-03 19:00N 46°19' E 030°40'0 0.0
2018-Jan-03 18:29N 46°19' E 030°40'0 0.0
2018-Jan-03 18:00N 46°19' E 030°40'0 0.0
2018-Jan-03 17:29N 46°19' E 030°40'0 0.0
2018-Jan-03 17:00N 46°19' E 030°40'0 0.0
2018-Jan-03 16:29N 46°19' E 030°40'0 0.0
2018-Jan-03 16:01N 46°19' E 030°40'0 0.0
2018-Jan-03 15:29N 46°19' E 030°40'0 0.0
2018-Jan-03 15:01N 46°19' E 030°40'0 0.0
2018-Jan-03 14:29N 46°19' E 030°40'0 0.0
2018-Jan-03 14:01N 46°19' E 030°40'0 0.0
2018-Jan-03 13:29N 46°19' E 030°40'0 0.0
2018-Jan-03 13:00N 46°19' E 030°40'0 0.0
2018-Jan-03 12:29N 46°19' E 030°40'0 0.0
2018-Jan-03 12:00N 46°19' E 030°40'0 0.0
2018-Jan-03 11:30N 46°19' E 030°40'0 0.0
2018-Jan-03 11:00N 46°19' E 030°40'0 0.0
2018-Jan-03 10:30N 46°19' E 030°40'0 0.0
2018-Jan-03 10:01N 46°19' E 030°40'0 0.0
2018-Jan-03 09:29N 46°19' E 030°40'0 0.0
2018-Jan-03 09:00N 46°19' E 030°40'0 0.0
2018-Jan-03 08:30N 46°19' E 030°40'0 0.0
2018-Jan-03 08:01N 46°19' E 030°40'0 0.0
2018-Jan-03 07:29N 46°19' E 030°40'0 0.1
2018-Jan-03 07:00N 46°19' E 030°40'1 2.0
2018-Jan-03 06:30N 46°19' E 030°42'2 4.6
2018-Jan-03 06:00N 46°17' E 030°44'1 2.2
2018-Jan-03 05:30N 46°16' E 030°44'0 0.7
2018-Jan-03 05:00N 46°16' E 030°44'0 0.1
2018-Jan-03 04:29N 46°16' E 030°44'0 0.1
2018-Jan-03 04:00N 46°16' E 030°44'0 0.1
2018-Jan-03 03:30N 46°16' E 030°44'0 0.0
2018-Jan-03 03:01N 46°16' E 030°44'0 0.0
2018-Jan-03 02:30N 46°16' E 030°44'0 0.0
2018-Jan-03 02:01N 46°16' E 030°44'0 0.0
2018-Jan-03 01:29N 46°16' E 030°44'0 0.1
2018-Jan-03 01:00N 46°16' E 030°44'0 0.0
2018-Jan-03 00:29N 46°16' E 030°44'0 0.1
2018-Jan-03 00:00N 46°16' E 030°44'0 0.0
2018-Jan-02 23:29N 46°16' E 030°44'0 0.1
2018-Jan-02 23:00N 46°16' E 030°44'0 0.1
2018-Jan-02 22:30N 46°16' E 030°44'0 0.1
2018-Jan-02 22:00N 46°16' E 030°44'0 0.0
2018-Jan-02 21:29N 46°16' E 030°44'0 0.1
2018-Jan-02 21:01N 46°16' E 030°44'0 0.0
2018-Jan-02 20:29N 46°16' E 030°44'0 0.0
2018-Jan-02 20:01N 46°16' E 030°44'0 0.0
2018-Jan-02 19:29N 46°16' E 030°44'0 0.1
2018-Jan-02 19:00N 46°16' E 030°44'0 0.0
2018-Jan-02 18:30N 46°16' E 030°44'0 0.1
2018-Jan-02 18:01N 46°16' E 030°44'0 0.1
2018-Jan-02 17:29N 46°16' E 030°44'0 0.0
2018-Jan-02 17:00N 46°16' E 030°44'0 0.1
2018-Jan-02 16:30N 46°16' E 030°44'0 0.0
2018-Jan-02 16:01N 46°16' E 030°44'0 0.0
2018-Jan-02 15:30N 46°16' E 030°44'0 0.0
2018-Jan-02 15:00N 46°16' E 030°44'0 0.1
2018-Jan-02 14:29N 46°16' E 030°44'0 0.2
2018-Jan-02 14:00N 46°16' E 030°44'0 0.1
2018-Jan-02 13:30N 46°16' E 030°44'0 0.0
2018-Jan-02 13:00N 46°16' E 030°44'0 0.0
2018-Jan-02 12:29N 46°16' E 030°44'0 0.0
2018-Jan-02 12:01N 46°16' E 030°44'0 0.0
2018-Jan-02 11:30N 46°16' E 030°44'0 0.0
2018-Jan-02 11:00N 46°16' E 030°44'0 0.0
2018-Jan-02 09:57N 46°16' E 030°44'0 0.0
2018-Jan-02 07:54N 46°16' E 030°44'0 0.1
2018-Jan-02 06:57N 46°16' E 030°44'5 4.7
2018-Jan-02 05:58N 46°16' E 030°50'511.3
2018-Jan-02 05:30N 46°20' E 030°55'1211.5
2018-Jan-02 04:30N 46°31' E 030°55'1911.0
2018-Jan-02 02:45N 46°35' E 031°23'312.5
2018-Jan-02 02:30N 46°35' E 031°27'5 9.8
2018-Jan-02 02:00N 46°35' E 031°34'611.2
2018-Jan-02 01:30N 46°36' E 031°43'611.1
2018-Jan-02 01:00N 46°36' E 031°50'5 9.5
2018-Jan-02 00:30N 46°39' E 031°56'5 9.5
2018-Jan-02 00:00N 46°44' E 031°55'  
Track history (hours):
 
Tides and Currents Weather Stations Pressure Air Temp Water Temp Dewpoint Dewpoint Depression Visibility Wind Speed Wind Dir Waves Ship Positions

Infinite Prosperity

Last reported at 2018-Jan-11 23:45 UTC. Time now 2018-Jan-20 05:31 UTC.
Position N 36°51' E 023°33'.
Warning: this ship's position is 8 days out of date.

Length 225 m; draft 7 m.

Type: Cargo ship. MMSI: 370060000.

Date/timePositionNaut miles runAvg speedWind from/ knotsBaromVisibWave heightAir tempDewpointWater temp
2018-Jan-11 23:45N 36°51' E 023°33'412.2
2018-Jan-11 23:26N 36°54' E 023°35'512.4
2018-Jan-11 23:00N 36°59' E 023°39'612.3
2018-Jan-11 22:30N 37°04' E 023°43'612.4
2018-Jan-11 22:01N 37°09' E 023°47'612.4
2018-Jan-11 21:29N 37°14' E 023°51'612.4
2018-Jan-11 20:59N 37°20' E 023°55'712.4
2018-Jan-11 20:25N 37°26' E 024°00'512.5
2018-Jan-11 20:00N 37°30' E 024°04'612.6
2018-Jan-11 19:31N 37°35' E 024°08'612.6
2018-Jan-11 19:00N 37°40' E 024°13'612.7
2018-Jan-11 18:31N 37°44' E 024°19'712.8
2018-Jan-11 18:00N 37°49' E 024°25'612.6
2018-Jan-11 17:30N 37°53' E 024°31'612.4
2018-Jan-11 17:00N 37°58' E 024°36'142 6.8
2018-Jan-10 20:19N 40°01' E 026°05'411.0
2018-Jan-10 19:59N 40°02' E 026°10'427 8.3
2018-Jan-08 16:30N 46°16' E 030°51'4 9.0
2018-Jan-08 16:00N 46°16' E 030°45'0 0.7
2018-Jan-08 15:29N 46°17' E 030°45'0 0.0
2018-Jan-08 15:01N 46°17' E 030°45'0 0.0
2018-Jan-08 14:29N 46°17' E 030°45'0 0.1
2018-Jan-08 14:01N 46°17' E 030°44'0 0.1
2018-Jan-08 13:29N 46°17' E 030°44'0 0.1
2018-Jan-08 13:00N 46°16' E 030°44'0 0.1
2018-Jan-08 12:30N 46°16' E 030°44'0 0.0
2018-Jan-08 12:00N 46°16' E 030°44'0 0.0
2018-Jan-08 11:29N 46°16' E 030°44'0 0.0
2018-Jan-08 11:00N 46°16' E 030°44'0 0.0
2018-Jan-08 10:29N 46°16' E 030°44'0 0.0
2018-Jan-08 10:01N 46°16' E 030°44'0 0.0
2018-Jan-08 09:29N 46°16' E 030°44'0 0.0
2018-Jan-08 09:00N 46°16' E 030°44'0 0.0
2018-Jan-08 08:29N 46°16' E 030°44'0 0.0
2018-Jan-08 08:00N 46°16' E 030°44'0 0.0
2018-Jan-08 07:30N 46°16' E 030°44'0 0.0
2018-Jan-08 07:00N 46°16' E 030°44'0 0.0
2018-Jan-08 06:30N 46°16' E 030°44'0 0.0
2018-Jan-08 06:01N 46°16' E 030°44'0 0.0
2018-Jan-08 05:29N 46°16' E 030°44'0 0.0
2018-Jan-08 05:01N 46°16' E 030°44'0 0.0
2018-Jan-08 04:29N 46°16' E 030°44'0 0.1
2018-Jan-08 04:01N 46°16' E 030°44'0 0.0
2018-Jan-08 03:29N 46°16' E 030°44'0 0.0
2018-Jan-08 03:01N 46°16' E 030°44'0 0.0
2018-Jan-08 02:29N 46°16' E 030°44'0 0.0
2018-Jan-08 02:00N 46°16' E 030°44'0 0.2
2018-Jan-08 00:59N 46°16' E 030°45'0 0.1
2018-Jan-08 00:31N 46°17' E 030°45'0 0.1
2018-Jan-07 23:59N 46°17' E 030°45'0 0.0
2018-Jan-07 23:31N 46°17' E 030°45'0 0.0
2018-Jan-07 22:59N 46°17' E 030°45'0 0.1
2018-Jan-07 22:31N 46°17' E 030°45'0 0.0
2018-Jan-07 21:59N 46°17' E 030°45'0 0.1
2018-Jan-07 21:30N 46°17' E 030°45'0 0.1
2018-Jan-07 21:00N 46°17' E 030°45'0 0.0
2018-Jan-07 20:30N 46°17' E 030°45'0 0.0
2018-Jan-07 20:00N 46°17' E 030°45'0 0.0
2018-Jan-07 19:30N 46°17' E 030°45'0 0.0
2018-Jan-07 19:00N 46°17' E 030°45'0 0.0
2018-Jan-07 18:30N 46°17' E 030°45'0 0.0
2018-Jan-07 18:00N 46°17' E 030°45'0 0.0
2018-Jan-07 17:30N 46°17' E 030°45'0 0.0
2018-Jan-07 17:00N 46°17' E 030°45'0 0.0
2018-Jan-07 16:30N 46°17' E 030°45'0 0.0
2018-Jan-07 15:59N 46°17' E 030°45'0 0.0
2018-Jan-07 15:31N 46°17' E 030°45'0 0.0
2018-Jan-07 15:00N 46°17' E 030°45'0 0.0
2018-Jan-07 14:30N 46°17' E 030°45'0 0.0
2018-Jan-07 14:00N 46°17' E 030°45'0 0.0
2018-Jan-07 13:31N 46°17' E 030°45'0 0.0
2018-Jan-07 12:59N 46°17' E 030°45'0 0.0
2018-Jan-07 12:30N 46°17' E 030°44'0 0.2
2018-Jan-07 11:59N 46°17' E 030°45'1 1.5
2018-Jan-07 11:31N 46°17' E 030°44'3 5.7
2018-Jan-07 11:00N 46°19' E 030°41'1 1.0
2018-Jan-07 10:31N 46°19' E 030°40'0 0.0
2018-Jan-07 10:00N 46°19' E 030°40'0 0.0
2018-Jan-07 09:30N 46°19' E 030°40'0 0.0
2018-Jan-07 09:00N 46°19' E 030°40'0 0.0
2018-Jan-07 08:30N 46°19' E 030°40'0 0.0
2018-Jan-07 08:00N 46°19' E 030°40'0 0.0
2018-Jan-07 07:30N 46°19' E 030°40'0 0.0
2018-Jan-07 07:00N 46°19' E 030°40'0 0.0
2018-Jan-07 06:31N 46°19' E 030°40'0 0.0
2018-Jan-07 06:00N 46°19' E 030°40'0 0.0
2018-Jan-07 05:30N 46°19' E 030°40'0 0.0
2018-Jan-07 04:59N 46°19' E 030°40'0 0.0
2018-Jan-07 04:30N 46°19' E 030°40'0 0.0
2018-Jan-07 04:00N 46°19' E 030°40'0 0.0
2018-Jan-07 03:30N 46°19' E 030°40'0 0.0
2018-Jan-07 02:59N 46°19' E 030°40'0 0.0
2018-Jan-07 02:30N 46°19' E 030°40'0 0.0
2018-Jan-07 02:00N 46°19' E 030°40'0 0.0
2018-Jan-07 01:31N 46°19' E 030°40'0 0.0
2018-Jan-07 00:30N 46°19' E 030°40'0 0.0
2018-Jan-06 23:59N 46°19' E 030°40'0 0.0
2018-Jan-06 23:31N 46°19' E 030°40'0 0.0
2018-Jan-06 23:00N 46°19' E 030°40'0 0.0
2018-Jan-06 22:31N 46°19' E 030°40'0 0.0
2018-Jan-06 22:00N 46°19' E 030°40'0 0.0
2018-Jan-06 21:30N 46°19' E 030°40'0 0.0
2018-Jan-06 21:00N 46°19' E 030°40'0 0.0
2018-Jan-06 20:30N 46°19' E 030°40'0 0.0
2018-Jan-06 20:00N 46°19' E 030°40'0 0.0
2018-Jan-06 19:30N 46°19' E 030°40'0 0.0
2018-Jan-06 18:59N 46°19' E 030°40'0 0.0
2018-Jan-06 18:31N 46°19' E 030°40'0 0.0
2018-Jan-06 18:00N 46°19' E 030°40'0 0.0
2018-Jan-06 17:31N 46°19' E 030°40'0 0.0
2018-Jan-06 17:01N 46°19' E 030°40'0 0.0
2018-Jan-06 16:30N 46°19' E 030°40'0 0.0
2018-Jan-06 16:00N 46°19' E 030°40'0 0.0
2018-Jan-06 15:29N 46°19' E 030°40'0 0.0
2018-Jan-06 15:01N 46°19' E 030°40'0 0.0
2018-Jan-06 14:29N 46°19' E 030°40'0 0.0
2018-Jan-06 14:00N 46°19' E 030°40'0 0.0
2018-Jan-06 13:30N 46°19' E 030°40'0 0.0
2018-Jan-06 13:01N 46°19' E 030°40'0 0.0
2018-Jan-06 12:30N 46°19' E 030°40'0 0.0
2018-Jan-06 12:00N 46°19' E 030°40'0 0.0
2018-Jan-06 11:29N 46°19' E 030°40'0 0.0
2018-Jan-06 11:00N 46°19' E 030°40'0 0.0
2018-Jan-06 10:29N 46°19' E 030°40'0 0.0
2018-Jan-06 10:00N 46°19' E 030°40'0 0.0
2018-Jan-06 09:30N 46°19' E 030°40'0 0.0
2018-Jan-06 09:01N 46°19' E 030°40'0 0.0
2018-Jan-06 08:31N 46°19' E 030°40'0 0.0
2018-Jan-06 08:00N 46°19' E 030°40'0 0.0
2018-Jan-06 07:29N 46°19' E 030°40'0 0.0
2018-Jan-06 07:00N 46°19' E 030°40'0 0.0
2018-Jan-06 06:29N 46°19' E 030°40'0 0.0
2018-Jan-06 06:01N 46°19' E 030°40'0 0.0
2018-Jan-06 04:59N 46°19' E 030°40'0 0.0
2018-Jan-06 04:31N 46°19' E 030°40'0 0.0
2018-Jan-06 03:59N 46°19' E 030°40'0 0.0
2018-Jan-06 03:30N 46°19' E 030°40'0 0.0
2018-Jan-06 02:59N 46°19' E 030°40'0 0.0
2018-Jan-06 02:31N 46°19' E 030°40'0 0.0
2018-Jan-06 01:59N 46°19' E 030°40'0 0.0
2018-Jan-06 01:30N 46°19' E 030°40'0 0.0
2018-Jan-06 01:00N 46°19' E 030°40'0 0.0
2018-Jan-06 00:31N 46°19' E 030°40'0 0.0
2018-Jan-06 00:00N 46°19' E 030°40'0 0.0
2018-Jan-05 23:31N 46°19' E 030°40'0 0.0
2018-Jan-05 22:59N 46°19' E 030°40'0 0.0
2018-Jan-05 22:31N 46°19' E 030°40'0 0.0
2018-Jan-05 21:59N 46°19' E 030°40'0 0.0
2018-Jan-05 21:31N 46°19' E 030°40'0 0.0
2018-Jan-05 21:00N 46°19' E 030°40'0 0.0
2018-Jan-05 20:31N 46°19' E 030°40'0 0.0
2018-Jan-05 19:59N 46°19' E 030°40'0 0.0
2018-Jan-05 19:31N 46°19' E 030°40'0 0.0
2018-Jan-05 18:59N 46°19' E 030°40'0 0.0
2018-Jan-05 18:30N 46°19' E 030°40'0 0.0
2018-Jan-05 17:59N 46°19' E 030°40'0 0.0
2018-Jan-05 17:30N 46°19' E 030°40'0 0.0
2018-Jan-05 16:59N 46°19' E 030°40'0 0.0
2018-Jan-05 16:31N 46°19' E 030°40'0 0.0
2018-Jan-05 15:59N 46°19' E 030°40'0 0.0
2018-Jan-05 15:31N 46°19' E 030°40'0 0.0
2018-Jan-05 15:00N 46°19' E 030°40'0 0.0
2018-Jan-05 14:30N 46°19' E 030°40'0 0.0
2018-Jan-05 14:00N 46°19' E 030°40'0 0.0
2018-Jan-05 13:31N 46°19' E 030°40'0 0.0
2018-Jan-05 12:59N 46°19' E 030°40'0 0.0
2018-Jan-05 12:30N 46°19' E 030°40'0 0.0
2018-Jan-05 11:59N 46°19' E 030°40'0 0.0
2018-Jan-05 11:30N 46°19' E 030°40'0 0.0
2018-Jan-05 11:00N 46°19' E 030°40'0 0.0
2018-Jan-05 10:30N 46°19' E 030°40'0 0.0
2018-Jan-05 10:00N 46°19' E 030°40'0 0.0
2018-Jan-05 09:31N 46°19' E 030°40'0 0.0
2018-Jan-05 09:00N 46°19' E 030°40'0 0.0
2018-Jan-05 08:31N 46°19' E 030°40'0 0.0
2018-Jan-05 07:59N 46°19' E 030°40'0 0.0
2018-Jan-05 07:30N 46°19' E 030°40'0 0.0
2018-Jan-05 06:59N 46°19' E 030°40'0 0.0
2018-Jan-05 06:31N 46°19' E 030°40'0 0.0
2018-Jan-05 06:00N 46°19' E 030°40'0 0.0
2018-Jan-05 05:30N 46°19' E 030°40'0 0.0
2018-Jan-05 05:00N 46°19' E 030°40'0 0.0
2018-Jan-05 04:30N 46°19' E 030°40'0 0.0
2018-Jan-05 03:59N 46°19' E 030°40'0 0.0
2018-Jan-05 03:30N 46°19' E 030°40'0 0.0
2018-Jan-05 02:59N 46°19' E 030°40'0 0.0
2018-Jan-05 02:31N 46°19' E 030°40'0 0.0
2018-Jan-05 01:59N 46°19' E 030°40'0 0.0
2018-Jan-05 01:30N 46°19' E 030°40'0 0.0
2018-Jan-05 01:00N 46°19' E 030°40'0 0.0
2018-Jan-05 00:30N 46°19' E 030°40'0 0.0
2018-Jan-05 00:00N 46°19' E 030°40'0 0.0
2018-Jan-04 23:31N 46°19' E 030°40'0 0.0
2018-Jan-04 22:59N 46°19' E 030°40'0 0.0
2018-Jan-04 22:30N 46°19' E 030°40'0 0.0
2018-Jan-04 21:59N 46°19' E 030°40'0 0.0
2018-Jan-04 21:31N 46°19' E 030°40'0 0.0
2018-Jan-04 20:59N 46°19' E 030°40'0 0.0
2018-Jan-04 20:31N 46°19' E 030°40'0 0.0
2018-Jan-04 20:00N 46°19' E 030°40'0 0.0
2018-Jan-04 19:31N 46°19' E 030°40'0 0.0
2018-Jan-04 18:59N 46°19' E 030°40'0 0.0
2018-Jan-04 18:30N 46°19' E 030°40'0 0.0
2018-Jan-04 17:59N 46°19' E 030°40'0 0.0
2018-Jan-04 17:31N 46°19' E 030°40'0 0.0
2018-Jan-04 17:00N 46°19' E 030°40'0 0.0
2018-Jan-04 16:30N 46°19' E 030°40'0 0.0
2018-Jan-04 16:00N 46°19' E 030°40'0 0.0
2018-Jan-04 15:31N 46°19' E 030°40'0 0.0
2018-Jan-04 14:59N 46°19' E 030°40'0 0.0
2018-Jan-04 14:31N 46°19' E 030°40'0 0.0
2018-Jan-04 13:59N 46°19' E 030°40'0 0.0
2018-Jan-04 13:30N 46°19' E 030°40'0 0.0
2018-Jan-04 12:59N 46°19' E 030°40'0 0.0
2018-Jan-04 12:30N 46°19' E 030°40'0 0.0
2018-Jan-04 12:00N 46°19' E 030°40'0 0.0
2018-Jan-04 11:30N 46°19' E 030°40'0 0.0
2018-Jan-04 10:59N 46°19' E 030°40'0 0.0
2018-Jan-04 10:31N 46°19' E 030°40'0 0.0
2018-Jan-04 09:59N 46°19' E 030°40'0 0.0
2018-Jan-04 09:31N 46°19' E 030°40'0 0.0
2018-Jan-04 08:59N 46°19' E 030°40'0 0.0
2018-Jan-04 08:30N 46°19' E 030°40'0 0.0
2018-Jan-04 08:00N 46°19' E 030°40'0 0.0
2018-Jan-04 07:30N 46°19' E 030°40'0 0.0
2018-Jan-04 07:00N 46°19' E 030°40'0 0.0
2018-Jan-04 06:30N 46°19' E 030°40'0 0.0
2018-Jan-04 06:00N 46°19' E 030°40'0 0.0
2018-Jan-04 05:30N 46°19' E 030°40'0 0.0
2018-Jan-04 04:59N 46°19' E 030°40'0 0.0
2018-Jan-04 04:30N 46°19' E 030°40'0 0.0
2018-Jan-04 04:00N 46°19' E 030°40'0 0.0
2018-Jan-04 03:30N 46°19' E 030°40'0 0.0
2018-Jan-04 03:00N 46°19' E 030°40'0 0.0
2018-Jan-04 02:30N 46°19' E 030°40'0 0.0
2018-Jan-04 01:59N 46°19' E 030°40'0 0.0
2018-Jan-04 01:31N 46°19' E 030°40'0 0.0
2018-Jan-04 00:59N 46°19' E 030°40'0 0.0
2018-Jan-04 00:30N 46°19' E 030°40'0 0.0
2018-Jan-03 23:59N 46°19' E 030°40'0 0.0
2018-Jan-03 23:31N 46°19' E 030°40'0 0.0
2018-Jan-03 22:30N 46°19' E 030°40'0 0.0
2018-Jan-03 22:00N 46°19' E 030°40'0 0.0
2018-Jan-03 21:30N 46°19' E 030°40'0 0.0
2018-Jan-03 21:01N 46°19' E 030°40'0 0.0
2018-Jan-03 20:30N 46°19' E 030°40'0 0.0
2018-Jan-03 20:00N 46°19' E 030°40'0 0.0
2018-Jan-03 19:29N 46°19' E 030°40'0 0.0
2018-Jan-03 19:00N 46°19' E 030°40'0 0.0
2018-Jan-03 18:29N 46°19' E 030°40'0 0.0
2018-Jan-03 18:00N 46°19' E 030°40'0 0.0
2018-Jan-03 17:29N 46°19' E 030°40'0 0.0
2018-Jan-03 17:00N 46°19' E 030°40'0 0.0
2018-Jan-03 16:29N 46°19' E 030°40'0 0.0
2018-Jan-03 16:01N 46°19' E 030°40'0 0.0
2018-Jan-03 15:29N 46°19' E 030°40'0 0.0
2018-Jan-03 15:01N 46°19' E 030°40'0 0.0
2018-Jan-03 14:29N 46°19' E 030°40'0 0.0
2018-Jan-03 14:01N 46°19' E 030°40'0 0.0
2018-Jan-03 13:29N 46°19' E 030°40'0 0.0
2018-Jan-03 13:00N 46°19' E 030°40'0 0.0
2018-Jan-03 12:29N 46°19' E 030°40'0 0.0
2018-Jan-03 12:00N 46°19' E 030°40'0 0.0
2018-Jan-03 11:30N 46°19' E 030°40'0 0.0
2018-Jan-03 11:00N 46°19' E 030°40'0 0.0
2018-Jan-03 10:30N 46°19' E 030°40'0 0.0
2018-Jan-03 10:01N 46°19' E 030°40'0 0.0
2018-Jan-03 09:29N 46°19' E 030°40'0 0.0
2018-Jan-03 09:00N 46°19' E 030°40'0 0.0
2018-Jan-03 08:30N 46°19' E 030°40'0 0.0
2018-Jan-03 08:01N 46°19' E 030°40'0 0.0
2018-Jan-03 07:29N 46°19' E 030°40'0 0.1
2018-Jan-03 07:00N 46°19' E 030°40'1 2.0
2018-Jan-03 06:30N 46°19' E 030°42'2 4.6
2018-Jan-03 06:00N 46°17' E 030°44'1 2.2
2018-Jan-03 05:30N 46°16' E 030°44'0 0.7
2018-Jan-03 05:00N 46°16' E 030°44'0 0.1
2018-Jan-03 04:29N 46°16' E 030°44'0 0.1
2018-Jan-03 04:00N 46°16' E 030°44'0 0.1
2018-Jan-03 03:30N 46°16' E 030°44'0 0.0
2018-Jan-03 03:01N 46°16' E 030°44'0 0.0
2018-Jan-03 02:30N 46°16' E 030°44'0 0.0
2018-Jan-03 02:01N 46°16' E 030°44'0 0.0
2018-Jan-03 01:29N 46°16' E 030°44'0 0.1
2018-Jan-03 01:00N 46°16' E 030°44'0 0.0
2018-Jan-03 00:29N 46°16' E 030°44'0 0.1
2018-Jan-03 00:00N 46°16' E 030°44'0 0.0
2018-Jan-02 23:29N 46°16' E 030°44'0 0.1
2018-Jan-02 23:00N 46°16' E 030°44'0 0.1
2018-Jan-02 22:30N 46°16' E 030°44'0 0.1
2018-Jan-02 22:00N 46°16' E 030°44'0 0.0
2018-Jan-02 21:29N 46°16' E 030°44'0 0.1
2018-Jan-02 21:01N 46°16' E 030°44'0 0.0
2018-Jan-02 20:29N 46°16' E 030°44'0 0.0
2018-Jan-02 20:01N 46°16' E 030°44'0 0.0
2018-Jan-02 19:29N 46°16' E 030°44'0 0.1
2018-Jan-02 19:00N 46°16' E 030°44'0 0.0
2018-Jan-02 18:30N 46°16' E 030°44'0 0.1
2018-Jan-02 18:01N 46°16' E 030°44'0 0.1
2018-Jan-02 17:29N 46°16' E 030°44'0 0.0
2018-Jan-02 17:00N 46°16' E 030°44'0 0.1
2018-Jan-02 16:30N 46°16' E 030°44'0 0.0
2018-Jan-02 16:01N 46°16' E 030°44'0 0.0
2018-Jan-02 15:30N 46°16' E 030°44'0 0.0
2018-Jan-02 15:00N 46°16' E 030°44'0 0.1
2018-Jan-02 14:29N 46°16' E 030°44'0 0.2
2018-Jan-02 14:00N 46°16' E 030°44'0 0.1
2018-Jan-02 13:30N 46°16' E 030°44'0 0.0
2018-Jan-02 13:00N 46°16' E 030°44'0 0.0
2018-Jan-02 12:29N 46°16' E 030°44'0 0.0
2018-Jan-02 12:01N 46°16' E 030°44'0 0.0
2018-Jan-02 11:30N 46°16' E 030°44'0 0.0
2018-Jan-02 11:00N 46°16' E 030°44'0 0.0
2018-Jan-02 09:57N 46°16' E 030°44'0 0.0
2018-Jan-02 07:54N 46°16' E 030°44'0 0.1
2018-Jan-02 06:57N 46°16' E 030°44'5 4.7
2018-Jan-02 05:58N 46°16' E 030°50'511.3
2018-Jan-02 05:30N 46°20' E 030°55'1211.5
2018-Jan-02 04:30N 46°31' E 030°55'1911.0
2018-Jan-02 02:45N 46°35' E 031°23'312.5
2018-Jan-02 02:30N 46°35' E 031°27'5 9.8
2018-Jan-02 02:00N 46°35' E 031°34'611.2
2018-Jan-02 01:30N 46°36' E 031°43'611.1
2018-Jan-02 01:00N 46°36' E 031°50'5 9.5
2018-Jan-02 00:30N 46°39' E 031°56'5 9.5
2018-Jan-02 00:00N 46°44' E 031°55'  

Dump ship's entire track history